Forside
METAR-TAF:

METAR-TAF

Lufthavne :

Olieplatform

Troll A, Norge

Breddekreds: 60-38-42N, længdekreds: 3-43-29E, højde: 20 m

Aktuelle vejr

Denne rapport blev lavet for 33 minutter siden, kl. 17:50 UTC
Vind 24 kt fra nordnordvest
Temperatur 4°C
Fugtighed 52%
Tryk 1001 hPa
Sigt 10 km eller mere

METAR: ENQA 231750Z AUTO 33024KT 9999NDV BKN050/// 04/M05 Q1001 W05/S6

Tid: 19:23 (18:23 UTC)


TAF: fraværende

Vejrobservationer og prognoser fra mere end 4000 lufthavne (METAR og TAF).

De gule og røde prikker repræsenterer de meteorologiske stationer.

Flyt musen over at se navnet på stationen.

Så klik over at se vejr observationer og prognoser.

At skifte det kort: Klik på de grønne knapper med et sort kors for at zoome ind; på den grønne knap med en bindestreg for at zoome ud; eller på de grønne pile for tilstødende kort.


METAR-TAF: